createdAt,value
2023-12-04T00:02:10.459Z,965.46
2023-12-04T00:07:12.202Z,965.33
2023-12-04T00:12:14.129Z,965.34
2023-12-04T00:17:15.363Z,965.27
2023-12-04T00:22:16.719Z,965.24
2023-12-04T00:27:18.873Z,965.18
2023-12-04T00:32:21.060Z,965.14
2023-12-04T00:37:23.088Z,965.09
2023-12-04T00:42:25.016Z,965.06
2023-12-04T00:47:26.585Z,965.08
2023-12-04T00:52:28.281Z,965.03
2023-12-04T00:57:29.911Z,965.06
2023-12-04T01:02:31.896Z,964.99
2023-12-04T01:07:34.031Z,965.03
2023-12-04T01:12:35.664Z,964.95
2023-12-04T01:17:37.141Z,964.85
2023-12-04T01:22:38.687Z,964.85
2023-12-04T01:27:40.674Z,964.85
2023-12-04T01:37:43.373Z,964.75
2023-12-04T02:12:55.133Z,964.13
2023-12-04T04:28:41.905Z,962.79
2023-12-04T04:33:43.878Z,962.71
2023-12-04T04:38:45.948Z,962.61
2023-12-04T04:43:47.737Z,962.51
2023-12-04T04:48:49.933Z,962.49
2023-12-04T04:53:51.594Z,962.5
2023-12-04T04:58:53.732Z,962.46
2023-12-04T05:03:55.339Z,962.43
2023-12-04T05:08:56.723Z,962.42
2023-12-04T05:13:58.772Z,962.36
2023-12-04T05:19:00.849Z,962.12
2023-12-04T05:24:02.790Z,962.05
2023-12-04T05:29:04.698Z,962.21
2023-12-04T05:34:06.652Z,962.21
2023-12-04T05:39:08.258Z,962.29
2023-12-04T05:44:10.199Z,962.2
2023-12-04T05:49:12.341Z,962.12
2023-12-04T05:54:13.796Z,962.09
2023-12-04T05:59:15.567Z,962.01
2023-12-04T06:04:17.147Z,961.84
2023-12-04T06:09:19.337Z,961.88
2023-12-04T06:14:20.812Z,961.92
2023-12-04T06:19:22.332Z,961.85
2023-12-04T06:24:23.820Z,961.76
2023-12-04T06:29:25.344Z,961.72
2023-12-04T06:34:27.537Z,961.66
2023-12-04T06:39:29.325Z,961.68
2023-12-04T06:44:30.742Z,961.57
2023-12-04T06:49:32.776Z,961.57
2023-12-04T06:54:34.400Z,961.49
2023-12-04T06:59:35.826Z,961.42
2023-12-04T07:04:37.451Z,961.52
2023-12-04T07:09:39.395Z,961.39
2023-12-04T07:14:41.510Z,961.31
2023-12-04T07:19:43.330Z,961.35
2023-12-04T07:24:44.947Z,961.24
2023-12-04T07:29:46.812Z,961.17
2023-12-04T07:34:48.546Z,961.11
2023-12-04T07:39:50.086Z,960.97
2023-12-04T07:44:51.582Z,960.87
2023-12-04T07:49:53.657Z,960.82
2023-12-04T07:54:55.805Z,960.84
2023-12-04T07:59:57.006Z,960.77
2023-12-04T08:04:58.386Z,960.75
2023-12-04T08:10:00.332Z,960.87
2023-12-04T08:15:02.399Z,961.05
2023-12-04T08:20:04.637Z,960.99
2023-12-04T08:25:06.006Z,960.88
2023-12-04T08:30:08.175Z,960.84
2023-12-04T08:35:09.889Z,960.76
2023-12-04T08:40:11.689Z,960.59
2023-12-04T08:45:13.855Z,960.7
2023-12-04T08:50:15.559Z,960.79
2023-12-04T08:55:17.272Z,960.75
2023-12-04T09:00:18.845Z,960.71
2023-12-04T09:05:20.517Z,960.77
2023-12-04T09:10:26.180Z,960.75
2023-12-04T09:15:23.417Z,960.72
2023-12-04T09:20:24.715Z,960.71
2023-12-04T09:25:26.893Z,960.57
2023-12-04T09:30:28.213Z,960.49
2023-12-04T09:35:29.711Z,960.58
2023-12-04T09:40:31.453Z,960.59
2023-12-04T09:45:33.285Z,960.57
2023-12-04T09:50:35.497Z,960.6
2023-12-04T09:55:37.171Z,960.63
2023-12-04T10:00:38.530Z,960.5
2023-12-04T10:05:40.589Z,960.28
2023-12-04T10:10:42.594Z,960.17
2023-12-04T10:15:44.672Z,960.08
2023-12-04T10:20:46.625Z,960.1
2023-12-04T10:25:48.601Z,960.02
2023-12-04T10:30:50.504Z,959.84
2023-12-04T10:35:51.929Z,959.67
2023-12-04T10:40:53.376Z,959.67
2023-12-04T10:45:55.222Z,959.62
2023-12-04T10:50:57.418Z,959.5
2023-12-04T10:55:59.160Z,959.48
2023-12-04T11:01:02.281Z,959.4
2023-12-04T11:06:02.464Z,959.48
2023-12-04T11:11:03.884Z,959.39
2023-12-04T11:16:05.731Z,959.25
2023-12-04T11:21:07.274Z,959.07
2023-12-04T11:26:09.407Z,958.97
2023-12-04T11:31:11.576Z,958.89
2023-12-04T11:36:14.192Z,958.8
2023-12-04T11:41:14.964Z,958.75
2023-12-04T11:46:16.150Z,958.78
2023-12-04T11:51:17.395Z,958.81
2023-12-04T11:56:18.706Z,958.77
2023-12-04T12:01:19.967Z,958.67
2023-12-04T12:06:22.384Z,958.73
2023-12-04T12:11:23.563Z,958.67
2023-12-04T12:16:25.505Z,958.78
2023-12-04T12:21:26.808Z,958.63
2023-12-04T12:26:28.385Z,958.65
2023-12-04T12:31:29.844Z,958.66
2023-12-04T12:36:31.074Z,958.53
2023-12-04T12:41:32.519Z,958.45
2023-12-04T12:46:34.330Z,958.39
2023-12-04T12:51:35.953Z,958.38
2023-12-04T12:56:37.542Z,958.57
2023-12-04T13:01:39.670Z,958.46
2023-12-04T13:06:41.380Z,958.51
2023-12-04T13:11:43.428Z,958.46
2023-12-04T13:16:45.117Z,958.39
2023-12-04T13:21:47.032Z,958.17
2023-12-04T13:26:48.405Z,957.94
2023-12-04T13:31:51.393Z,957.59
2023-12-04T13:36:52.052Z,957.58
2023-12-04T13:41:53.922Z,957.56
2023-12-04T13:46:55.774Z,957.53
2023-12-04T13:51:57.232Z,957.38
2023-12-04T13:56:59.336Z,957.47
2023-12-04T14:02:01.003Z,957.42
2023-12-04T14:07:04.590Z,957.27
2023-12-04T14:12:04.329Z,957.35
2023-12-04T14:17:06.263Z,957.45
2023-12-04T14:22:07.510Z,957.32
2023-12-04T14:27:08.880Z,957.34
2023-12-04T14:27:15.179Z,957.31
2023-12-04T14:32:17.349Z,957.17
2023-12-04T14:37:18.944Z,957.23
2023-12-04T14:42:20.243Z,957.17
2023-12-04T14:47:22.348Z,957.07
2023-12-04T14:52:23.538Z,957.27
2023-12-04T14:57:24.936Z,957.37
2023-12-04T15:02:26.702Z,957.47
2023-12-04T15:07:28.235Z,957.27
2023-12-04T15:12:29.851Z,957.31
2023-12-04T15:17:31.885Z,957.25
2023-12-04T15:22:33.567Z,957.2
2023-12-04T15:27:35.319Z,957.14
2023-12-04T15:32:37.031Z,957.12
2023-12-04T15:37:38.837Z,957.11
2023-12-04T15:42:40.886Z,957.08
2023-12-04T15:57:45.882Z,957.02
2023-12-04T16:02:47.741Z,956.78
2023-12-04T16:17:52.369Z,956.69
2023-12-04T16:27:55.190Z,956.62
2023-12-04T16:32:56.897Z,956.62
2023-12-04T16:58:05.498Z,956.35
2023-12-04T18:28:35.478Z,955.63
2023-12-04T18:48:41.984Z,955.58
2023-12-04T18:53:43.646Z,955.59
2023-12-04T18:58:45.107Z,955.67
2023-12-04T19:03:46.464Z,955.72
2023-12-04T19:08:48.306Z,955.7
2023-12-04T19:13:49.585Z,955.67
2023-12-04T19:18:51.753Z,955.63
2023-12-04T19:23:53.130Z,955.6
2023-12-04T19:28:55.104Z,955.39
2023-12-04T19:33:56.621Z,955.36
2023-12-04T19:38:58.668Z,955.34
2023-12-04T19:43:59.962Z,955.33
2023-12-04T19:49:01.462Z,955.34
2023-12-04T19:54:03.477Z,955.31
2023-12-04T19:59:05.468Z,955.32
2023-12-04T20:04:07.289Z,955.28
2023-12-04T20:09:08.686Z,955.2
2023-12-04T20:14:09.941Z,955.13
2023-12-04T20:19:11.783Z,955.08
2023-12-04T20:24:13.401Z,955.13
2023-12-04T20:29:15.331Z,955.11
2023-12-04T20:34:16.768Z,955.16
2023-12-04T20:39:18.217Z,955.08
2023-12-04T20:44:20.322Z,955.1
2023-12-04T20:49:22.501Z,954.94
2023-12-04T20:54:23.921Z,954.92
2023-12-04T20:59:25.888Z,954.89
2023-12-04T21:04:28.032Z,954.71
2023-12-04T21:09:29.999Z,954.62
2023-12-04T21:14:31.517Z,954.64
2023-12-04T21:19:32.837Z,954.67
2023-12-04T21:24:34.938Z,954.67
2023-12-04T21:29:36.661Z,954.47
2023-12-04T21:34:38.036Z,954.42
2023-12-04T21:39:39.497Z,954.26
2023-12-04T21:44:40.702Z,954.34
2023-12-04T21:49:42.780Z,954.34
2023-12-04T21:54:43.968Z,954.15
2023-12-04T21:59:45.657Z,954.17
2023-12-04T22:04:47.601Z,954.14
2023-12-04T22:09:49.282Z,954.18
2023-12-04T22:14:51.261Z,954.19
2023-12-04T22:19:53.263Z,954.04
2023-12-04T22:24:54.494Z,953.96
2023-12-04T22:29:56.543Z,954.07
2023-12-04T22:34:57.921Z,953.91
2023-12-04T22:39:59.568Z,954
2023-12-04T22:45:01.380Z,953.95
2023-12-04T22:50:02.655Z,953.94
2023-12-04T22:55:04.278Z,953.84
2023-12-04T23:00:06.074Z,953.74
2023-12-04T23:05:07.775Z,953.7
2023-12-04T23:10:09.136Z,953.59
2023-12-04T23:15:10.972Z,953.62
2023-12-04T23:20:12.922Z,953.53
2023-12-04T23:25:14.636Z,953.61
2023-12-04T23:30:16.612Z,953.43
2023-12-04T23:35:18.371Z,953.47
2023-12-04T23:40:20.468Z,953.44
2023-12-04T23:45:22.319Z,953.4
2023-12-04T23:50:23.763Z,953.37
2023-12-04T23:55:25.775Z,953.36
